createdAt,value
2017-12-01T00:01:32.306Z,21.67
2017-12-01T00:03:59.883Z,20.10
2017-12-01T00:06:27.853Z,22.20
2017-12-01T00:08:55.437Z,21.63
2017-12-01T00:11:23.023Z,20.00
2017-12-01T00:13:50.649Z,21.27
2017-12-01T00:16:18.226Z,20.33
2017-12-01T00:18:45.988Z,19.90
2017-12-01T00:21:14.313Z,21.20
2017-12-01T00:23:41.912Z,21.20
2017-12-01T00:26:09.530Z,21.33
2017-12-01T00:28:37.832Z,20.97
2017-12-01T00:31:05.580Z,22.67
2017-12-01T00:33:33.163Z,22.07
2017-12-01T00:36:00.746Z,22.03
2017-12-01T00:38:28.362Z,19.10
2017-12-01T00:40:56.122Z,22.20
2017-12-01T00:43:23.914Z,21.67
2017-12-01T00:45:51.494Z,22.30
2017-12-01T00:48:19.927Z,21.27
2017-12-01T00:50:47.544Z,21.10
2017-12-01T00:53:15.401Z,19.80
2017-12-01T00:55:43.328Z,19.30
2017-12-01T00:58:10.905Z,18.07
2017-12-01T01:00:38.493Z,20.47
2017-12-01T01:03:06.985Z,19.60
2017-12-01T01:05:35.344Z,18.10
2017-12-01T01:08:03.278Z,16.80
2017-12-01T01:10:30.857Z,17.33
2017-12-01T01:12:58.433Z,18.10
2017-12-01T01:15:26.830Z,15.77
2017-12-01T01:17:54.412Z,21.07
2017-12-01T01:20:22.006Z,16.70
2017-12-01T01:22:49.878Z,16.87
2017-12-01T01:25:17.468Z,16.23
2017-12-01T01:27:45.049Z,15.50
2017-12-01T01:30:12.660Z,15.77
2017-12-01T01:32:40.241Z,16.67
2017-12-01T01:35:07.860Z,14.60
2017-12-01T01:37:35.812Z,16.23
2017-12-01T01:40:03.386Z,16.93
2017-12-01T01:42:30.932Z,13.90
2017-12-01T01:44:58.739Z,14.83
2017-12-01T01:47:27.064Z,14.90
2017-12-01T01:49:55.171Z,14.40
2017-12-01T01:52:22.744Z,14.30
2017-12-01T01:54:50.315Z,14.03
2017-12-01T01:57:17.967Z,13.07
2017-12-01T01:59:45.549Z,14.67
2017-12-01T02:02:13.325Z,13.93
2017-12-01T02:04:40.914Z,16.00
2017-12-01T02:07:09.179Z,15.20
2017-12-01T02:09:36.754Z,14.90
2017-12-01T02:12:04.322Z,13.20
2017-12-01T02:14:31.928Z,15.43
2017-12-01T02:16:59.461Z,15.47
2017-12-01T02:19:27.065Z,13.83
2017-12-01T02:21:54.650Z,14.97
2017-12-01T02:24:22.258Z,14.23
2017-12-01T02:26:50.597Z,16.37
2017-12-01T02:29:18.176Z,14.30
2017-12-01T02:31:45.846Z,15.00
2017-12-01T02:34:13.430Z,14.93
2017-12-01T02:36:41.044Z,16.37
2017-12-01T02:39:08.607Z,15.87
2017-12-01T02:41:36.211Z,13.73
2017-12-01T02:44:03.800Z,13.83
2017-12-01T02:46:31.421Z,15.07
2017-12-01T02:48:59.761Z,13.33
2017-12-01T02:51:27.346Z,13.90
2017-12-01T02:53:55.051Z,14.00
2017-12-01T02:56:22.629Z,15.10
2017-12-01T02:58:50.359Z,18.40
2017-12-01T03:01:17.939Z,19.33
2017-12-01T03:03:45.837Z,17.43
2017-12-01T03:06:13.418Z,16.17
2017-12-01T03:08:42.509Z,16.63
2017-12-01T03:11:10.301Z,14.67
2017-12-01T03:13:38.633Z,14.90
2017-12-01T03:16:06.237Z,15.53
2017-12-01T03:18:34.609Z,14.60
2017-12-01T03:21:02.309Z,16.70
2017-12-01T03:23:29.920Z,14.97
2017-12-01T03:25:57.503Z,16.27
2017-12-01T03:28:25.153Z,14.53
2017-12-01T03:30:53.510Z,14.50
2017-12-01T03:33:21.199Z,15.57
2017-12-01T03:35:48.822Z,14.53
2017-12-01T03:38:16.370Z,14.80
2017-12-01T03:40:44.278Z,12.90
2017-12-01T03:43:12.626Z,14.87
2017-12-01T03:45:40.196Z,15.40
2017-12-01T03:48:07.837Z,14.53
2017-12-01T03:50:35.472Z,15.87
2017-12-01T03:53:03.060Z,13.93
2017-12-01T03:55:31.009Z,14.93
2017-12-01T03:57:58.570Z,17.33
2017-12-01T04:00:26.389Z,14.90
2017-12-01T04:02:54.773Z,16.43
2017-12-01T04:05:22.337Z,14.13
2017-12-01T04:07:50.729Z,14.70
2017-12-01T04:10:18.333Z,16.53
2017-12-01T04:12:46.320Z,14.37
2017-12-01T04:15:13.902Z,15.00
2017-12-01T04:17:41.488Z,15.40
2017-12-01T04:20:09.120Z,16.43
2017-12-01T04:22:37.602Z,15.80
2017-12-01T04:25:05.971Z,16.70
2017-12-01T04:27:34.325Z,15.77
2017-12-01T04:30:01.933Z,15.53
2017-12-01T04:32:29.514Z,14.93
2017-12-01T04:34:57.049Z,13.40
2017-12-01T04:37:24.644Z,14.87
2017-12-01T04:39:52.206Z,16.20
2017-12-01T04:42:19.861Z,15.03
2017-12-01T04:44:47.418Z,15.03
2017-12-01T04:47:15.307Z,15.33
2017-12-01T04:49:43.062Z,14.83
2017-12-01T04:52:10.718Z,15.67
2017-12-01T04:54:39.985Z,16.33
2017-12-01T04:57:07.734Z,15.83
2017-12-01T04:59:36.141Z,14.63
2017-12-01T05:02:03.718Z,16.20
2017-12-01T05:04:31.798Z,15.53
2017-12-01T05:06:59.360Z,16.10
2017-12-01T05:09:27.301Z,14.73
2017-12-01T05:11:54.920Z,15.90
2017-12-01T05:14:22.501Z,16.27
2017-12-01T05:16:51.034Z,16.07
2017-12-01T05:19:18.597Z,15.47
2017-12-01T05:21:46.762Z,15.87
2017-12-01T05:24:14.337Z,16.23
2017-12-01T05:26:41.955Z,17.90
2017-12-01T05:29:09.550Z,15.77
2017-12-01T05:31:37.326Z,15.67
2017-12-01T05:34:04.954Z,16.37
2017-12-01T05:36:32.530Z,16.20
2017-12-01T05:39:00.144Z,15.53
2017-12-01T05:41:27.716Z,15.73
2017-12-01T05:43:55.305Z,15.23
2017-12-01T05:46:22.913Z,16.77
2017-12-01T05:48:50.481Z,16.90
2017-12-01T05:51:18.092Z,16.60
2017-12-01T05:53:45.829Z,15.80
2017-12-01T05:56:13.429Z,15.90
2017-12-01T05:58:41.795Z,16.80
2017-12-01T06:01:09.364Z,16.83
2017-12-01T06:03:39.258Z,17.97
2017-12-01T06:06:06.969Z,15.83
2017-12-01T06:08:35.344Z,18.07
2017-12-01T06:11:02.912Z,17.47
2017-12-01T06:13:31.286Z,15.77
2017-12-01T06:15:58.853Z,18.00
2017-12-01T06:18:27.217Z,18.10
2017-12-01T06:20:54.881Z,17.90
2017-12-01T06:23:22.398Z,16.60
2017-12-01T06:25:50.485Z,16.60
2017-12-01T06:28:18.044Z,17.63
2017-12-01T06:30:45.646Z,17.37
2017-12-01T06:33:14.025Z,18.60
2017-12-01T06:35:41.614Z,18.77
2017-12-01T06:38:09.474Z,17.00
2017-12-01T06:40:37.062Z,17.30
2017-12-01T06:43:04.673Z,18.47
2017-12-01T06:45:32.257Z,17.37
2017-12-01T06:47:59.850Z,16.70
2017-12-01T06:50:28.249Z,17.70
2017-12-01T06:52:56.006Z,16.97
2017-12-01T06:55:23.612Z,17.23
2017-12-01T06:57:51.490Z,15.70
2017-12-01T07:00:19.366Z,17.40
2017-12-01T07:02:46.943Z,17.40
2017-12-01T07:05:14.502Z,18.20
2017-12-01T07:07:42.109Z,21.50
2017-12-01T07:10:09.925Z,20.97
2017-12-01T07:12:37.563Z,21.10
2017-12-01T07:15:05.178Z,20.60
2017-12-01T07:17:33.179Z,18.17
2017-12-01T07:20:01.047Z,18.70
2017-12-01T07:22:28.589Z,18.47
2017-12-01T07:24:56.618Z,19.20
2017-12-01T07:27:24.249Z,19.37
2017-12-01T07:29:51.822Z,19.00
2017-12-01T07:32:19.435Z,18.90
2017-12-01T07:34:47.795Z,18.57
2017-12-01T07:37:15.414Z,20.23
2017-12-01T07:39:42.977Z,20.40
2017-12-01T07:42:10.596Z,18.90
2017-12-01T07:44:43.750Z,20.97
2017-12-01T07:47:11.327Z,23.33
2017-12-01T07:49:39.719Z,25.20
2017-12-01T07:52:07.313Z,22.23
2017-12-01T07:54:34.942Z,20.90
2017-12-01T07:57:03.283Z,20.37
2017-12-01T07:59:30.875Z,21.40
2017-12-01T08:01:59.295Z,21.90
2017-12-01T08:04:26.894Z,24.10
2017-12-01T08:06:54.501Z,22.53
2017-12-01T08:09:22.094Z,21.03
2017-12-01T08:11:49.728Z,21.23
2017-12-01T08:14:17.307Z,20.67
2017-12-01T08:16:56.733Z,21.37
2017-12-01T08:19:24.713Z,20.90
2017-12-01T08:22:04.301Z,21.70
2017-12-01T08:24:43.684Z,22.40
2017-12-01T08:27:11.313Z,22.00
2017-12-01T08:29:38.889Z,20.67
2017-12-01T08:32:06.480Z,21.17
2017-12-01T08:34:34.103Z,22.27
2017-12-01T08:37:01.686Z,19.03
2017-12-01T08:39:29.309Z,20.73
2017-12-01T08:41:56.882Z,21.40
2017-12-01T08:44:24.743Z,19.40
2017-12-01T08:46:52.314Z,23.37
2017-12-01T08:49:19.888Z,23.70
2017-12-01T08:51:47.481Z,23.90
2017-12-01T08:54:15.060Z,22.13
2017-12-01T08:56:42.670Z,23.27
2017-12-01T08:59:10.237Z,23.27
2017-12-01T09:01:38.088Z,22.83
2017-12-01T09:04:05.698Z,21.90
2017-12-01T09:06:34.040Z,22.70
2017-12-01T09:09:01.658Z,21.47
2017-12-01T09:11:30.037Z,20.63
2017-12-01T09:13:57.786Z,19.90
2017-12-01T09:16:26.136Z,20.13
2017-12-01T09:18:53.780Z,22.63
2017-12-01T09:21:21.612Z,20.33
2017-12-01T09:23:49.160Z,19.50
2017-12-01T09:26:16.776Z,22.30
2017-12-01T09:28:44.340Z,22.27
2017-12-01T09:31:12.065Z,18.47
2017-12-01T09:33:39.717Z,19.50
2017-12-01T09:36:07.505Z,20.70
2017-12-01T09:38:35.091Z,23.47
2017-12-01T09:41:02.667Z,25.00
2017-12-01T09:43:31.075Z,23.20
2017-12-01T09:45:58.751Z,21.97
2017-12-01T09:48:26.362Z,20.50
2017-12-01T09:50:53.922Z,20.60
2017-12-01T09:53:21.557Z,22.10
2017-12-01T09:55:49.131Z,21.77
2017-12-01T09:58:17.032Z,21.97
2017-12-01T10:00:44.638Z,21.00
2017-12-01T10:03:12.625Z,20.43
2017-12-01T10:05:40.261Z,19.20
2017-12-01T10:08:07.919Z,19.07
2017-12-01T10:10:35.857Z,20.07
2017-12-01T10:13:04.302Z,20.67
2017-12-01T10:15:31.880Z,18.10
2017-12-01T10:17:59.495Z,20.00
2017-12-01T10:20:27.061Z,20.23
2017-12-01T10:22:54.717Z,22.10
2017-12-01T10:25:22.302Z,18.93
2017-12-01T10:27:49.928Z,21.73
2017-12-01T10:30:17.528Z,19.90
2017-12-01T10:32:45.101Z,20.40
2017-12-01T10:35:12.830Z,16.87
2017-12-01T10:37:40.409Z,19.40
2017-12-01T10:40:09.540Z,19.43
2017-12-01T10:42:37.108Z,23.00
2017-12-01T10:45:04.854Z,18.57
2017-12-01T10:47:32.437Z,20.07
2017-12-01T10:50:00.031Z,20.27
2017-12-01T10:52:27.624Z,20.40
2017-12-01T10:54:55.191Z,15.57
2017-12-01T10:57:23.561Z,21.20
2017-12-01T10:59:51.135Z,19.50
2017-12-01T11:02:19.744Z,21.83
2017-12-01T11:04:47.324Z,17.07
2017-12-01T11:07:14.908Z,19.90
2017-12-01T11:09:42.550Z,20.57
2017-12-01T11:12:10.458Z,19.20
2017-12-01T11:14:38.828Z,20.33
2017-12-01T11:17:06.740Z,20.03
2017-12-01T11:19:34.369Z,20.97
2017-12-01T11:22:02.066Z,21.17
2017-12-01T11:24:29.675Z,23.00
2017-12-01T11:26:57.309Z,22.13
2017-12-01T11:29:24.900Z,20.40
2017-12-01T11:31:53.453Z,20.80
2017-12-01T11:34:21.034Z,19.30
2017-12-01T11:36:48.897Z,21.27
2017-12-01T11:39:16.590Z,21.40
2017-12-01T11:41:44.955Z,21.37
2017-12-01T11:44:12.602Z,13.50
2017-12-01T11:46:40.197Z,18.37
2017-12-01T11:49:08.748Z,19.73
2017-12-01T11:51:36.314Z,21.80
2017-12-01T11:54:04.697Z,22.87
2017-12-01T11:56:32.470Z,22.80
2017-12-01T11:59:00.821Z,23.20
2017-12-01T12:01:28.627Z,20.13
2017-12-01T12:03:56.309Z,20.77
2017-12-01T12:06:23.918Z,21.83
2017-12-01T12:08:51.496Z,22.03
2017-12-01T12:11:19.073Z,20.47
2017-12-01T12:13:46.930Z,20.60
2017-12-01T12:16:15.301Z,22.10
2017-12-01T12:18:43.073Z,24.03
2017-12-01T12:21:11.762Z,20.50
2017-12-01T12:23:39.325Z,22.90
2017-12-01T12:26:06.962Z,20.23
2017-12-01T12:28:35.315Z,23.37
2017-12-01T12:31:03.227Z,22.80
2017-12-01T12:33:30.811Z,21.97
2017-12-01T12:35:58.386Z,21.00
2017-12-01T12:38:26.053Z,20.40
2017-12-01T12:40:53.647Z,19.60
2017-12-01T12:43:21.271Z,21.97
2017-12-01T12:45:48.816Z,18.13
2017-12-01T12:48:16.436Z,18.43
2017-12-01T12:50:43.997Z,17.57
2017-12-01T12:53:11.641Z,18.53
2017-12-01T12:55:39.215Z,17.07
2017-12-01T12:58:07.053Z,16.07
2017-12-01T13:00:34.646Z,16.83
2017-12-01T13:03:02.989Z,17.10
2017-12-01T13:05:30.634Z,16.70
2017-12-01T13:07:58.233Z,16.80
2017-12-01T13:10:27.086Z,16.30
2017-12-01T13:12:54.659Z,15.83
2017-12-01T13:15:22.225Z,19.20
2017-12-01T13:17:49.969Z,18.00
2017-12-01T13:20:17.550Z,17.67
2017-12-01T13:22:45.162Z,15.50
2017-12-01T13:25:12.738Z,16.73
2017-12-01T13:27:40.338Z,14.83
2017-12-01T13:30:08.673Z,14.13
2017-12-01T13:32:36.289Z,6.83
2017-12-01T13:35:04.636Z,14.97
2017-12-01T13:37:32.221Z,17.47
2017-12-01T13:40:00.597Z,17.07
2017-12-01T13:42:28.170Z,15.20
2017-12-01T13:44:56.775Z,14.43
2017-12-01T13:47:24.338Z,14.50
2017-12-01T13:49:51.973Z,11.40
2017-12-01T13:52:20.413Z,16.10
2017-12-01T13:54:47.997Z,16.17
2017-12-01T13:57:15.799Z,7.97
2017-12-01T13:59:43.369Z,13.03
2017-12-01T14:02:10.993Z,13.07
2017-12-01T14:04:38.574Z,13.40
2017-12-01T14:07:06.146Z,15.03
2017-12-01T14:09:33.782Z,12.20
2017-12-01T14:12:01.422Z,13.27
2017-12-01T14:14:29.030Z,14.70
2017-12-01T14:16:56.600Z,15.13
2017-12-01T14:19:24.238Z,14.97
2017-12-01T14:21:52.807Z,16.47
2017-12-01T14:24:21.150Z,12.83
2017-12-01T14:26:50.265Z,15.00
2017-12-01T14:29:17.863Z,13.47
2017-12-01T14:31:45.506Z,15.00
2017-12-01T14:34:13.996Z,15.90
2017-12-01T14:36:41.626Z,14.33
2017-12-01T14:39:09.981Z,12.40
2017-12-01T14:41:37.577Z,11.87
2017-12-01T14:44:05.956Z,12.73
2017-12-01T14:46:33.566Z,12.90
2017-12-01T14:49:01.200Z,12.50
2017-12-01T14:51:28.778Z,10.50
2017-12-01T14:53:56.444Z,14.23
2017-12-01T14:56:24.026Z,15.03
2017-12-01T14:58:51.614Z,17.30
2017-12-01T15:01:20.029Z,18.07
2017-12-01T15:03:47.602Z,20.03
2017-12-01T15:06:15.252Z,20.57
2017-12-01T15:08:42.849Z,20.73
2017-12-01T15:11:11.240Z,20.17
2017-12-01T15:13:38.866Z,18.50
2017-12-01T15:16:06.460Z,19.30
2017-12-01T15:18:34.144Z,18.33
2017-12-01T15:21:02.487Z,19.30
2017-12-01T15:23:30.122Z,19.37
2017-12-01T15:25:57.706Z,18.80
2017-12-01T15:28:25.302Z,18.07
2017-12-01T15:30:53.255Z,18.93
2017-12-01T15:33:21.663Z,18.93
2017-12-01T15:35:49.368Z,19.70
2017-12-01T15:38:16.976Z,21.10
2017-12-01T15:40:44.597Z,19.20
2017-12-01T15:43:12.177Z,20.40
2017-12-01T15:45:39.793Z,20.00
2017-12-01T15:48:07.391Z,17.93
2017-12-01T15:50:35.009Z,19.60
2017-12-01T15:53:02.579Z,20.83
2017-12-01T15:55:30.255Z,21.10
2017-12-01T15:57:57.842Z,17.00
2017-12-01T16:00:26.186Z,18.17
2017-12-01T16:02:53.786Z,12.20
2017-12-01T16:05:22.110Z,9.80
2017-12-01T16:07:49.713Z,8.97
2017-12-01T16:10:17.293Z,10.37
2017-12-01T16:12:45.046Z,11.00
2017-12-01T16:15:13.374Z,11.10
2017-12-01T16:17:40.948Z,9.50
2017-12-01T16:20:08.564Z,9.67
2017-12-01T16:22:37.332Z,9.37
2017-12-01T16:25:05.041Z,9.80
2017-12-01T16:27:32.578Z,10.97
2017-12-01T16:30:00.217Z,8.43
2017-12-01T16:32:27.811Z,9.90
2017-12-01T16:34:55.390Z,8.80
2017-12-01T16:37:23.009Z,11.07
2017-12-01T16:39:50.623Z,8.60
2017-12-01T16:42:18.262Z,11.53
2017-12-01T16:44:45.826Z,7.17
2017-12-01T16:47:13.909Z,12.67
2017-12-01T16:49:41.481Z,11.40
2017-12-01T16:52:09.048Z,14.60
2017-12-01T16:54:36.892Z,13.77
2017-12-01T16:57:04.457Z,12.13
2017-12-01T16:59:32.064Z,11.87
2017-12-01T17:02:00.547Z,12.00
2017-12-01T17:04:28.189Z,11.93
2017-12-01T17:06:55.820Z,10.80
2017-12-01T17:09:23.396Z,12.13
2017-12-01T17:11:51.008Z,10.83
2017-12-01T17:14:18.590Z,11.40
2017-12-01T17:16:46.193Z,11.37
2017-12-01T17:19:13.836Z,12.27
2017-12-01T17:21:41.413Z,10.43
2017-12-01T17:24:08.994Z,9.40
2017-12-01T17:26:36.592Z,10.07
2017-12-01T17:29:04.271Z,9.67
2017-12-01T17:31:35.838Z,10.30
2017-12-01T17:34:03.415Z,12.03
2017-12-01T17:36:31.242Z,11.57
2017-12-01T17:38:58.834Z,12.07
2017-12-01T17:41:27.230Z,10.33
2017-12-01T17:43:55.732Z,11.60
2017-12-01T17:46:23.342Z,10.70
2017-12-01T17:48:50.922Z,10.93
2017-12-01T17:51:19.270Z,9.57
2017-12-01T17:53:47.033Z,11.07
2017-12-01T17:56:14.630Z,11.93
2017-12-01T17:58:42.274Z,10.93
2017-12-01T18:01:09.857Z,12.27
2017-12-01T18:03:37.428Z,15.90
2017-12-01T18:06:05.183Z,13.10
2017-12-01T18:08:32.764Z,13.77
2017-12-01T18:11:00.403Z,12.83
2017-12-01T18:13:27.984Z,13.73
2017-12-01T18:15:55.575Z,13.00
2017-12-01T18:18:24.009Z,11.60
2017-12-01T18:20:51.619Z,11.90
2017-12-01T18:23:19.557Z,12.27
2017-12-01T18:25:47.129Z,10.93
2017-12-01T18:28:14.726Z,12.83
2017-12-01T18:30:43.112Z,14.57
2017-12-01T18:33:10.703Z,13.90
2017-12-01T18:35:38.778Z,12.23
2017-12-01T18:38:06.368Z,12.80
2017-12-01T18:40:33.966Z,14.67
2017-12-01T18:43:01.571Z,14.20
2017-12-01T18:45:29.145Z,15.93
2017-12-01T18:47:57.681Z,15.80
2017-12-01T18:50:25.271Z,14.07
2017-12-01T18:52:52.869Z,15.90
2017-12-01T18:55:20.502Z,18.20
2017-12-01T18:57:48.140Z,14.73
2017-12-01T19:00:15.780Z,12.57
2017-12-01T19:02:44.173Z,12.07
2017-12-01T19:05:12.095Z,12.20
2017-12-01T19:07:39.666Z,12.00
2017-12-01T19:10:07.269Z,11.70
2017-12-01T19:12:34.939Z,13.30
2017-12-01T19:15:02.523Z,12.53
2017-12-01T19:17:30.137Z,12.40
2017-12-01T19:19:57.861Z,12.43
2017-12-01T19:22:25.436Z,12.90
2017-12-01T19:24:53.072Z,14.87
2017-12-01T19:27:20.656Z,12.50
2017-12-01T19:29:49.019Z,11.27
2017-12-01T19:32:16.635Z,14.33
2017-12-01T19:34:44.205Z,23.67
2017-12-01T19:37:11.813Z,13.53
2017-12-01T19:39:39.390Z,19.93
2017-12-01T19:42:07.769Z,13.00
2017-12-01T19:44:35.349Z,13.30
2017-12-01T19:47:03.027Z,12.93
2017-12-01T19:49:30.617Z,15.40
2017-12-01T19:51:58.290Z,16.00
2017-12-01T19:54:26.692Z,14.63
2017-12-01T19:56:54.377Z,13.53
2017-12-01T19:59:22.244Z,14.30
2017-12-01T20:01:50.461Z,12.47
2017-12-01T20:04:18.147Z,15.20
2017-12-01T20:06:45.774Z,14.50
2017-12-01T20:09:13.578Z,15.90
2017-12-01T20:11:41.960Z,16.90
2017-12-01T20:14:10.294Z,17.83
2017-12-01T20:16:37.909Z,15.43
2017-12-01T20:19:05.486Z,16.33
2017-12-01T20:21:33.150Z,15.70
2017-12-01T20:24:01.064Z,16.87
2017-12-01T20:26:28.646Z,17.77
2017-12-01T20:28:56.302Z,17.30
2017-12-01T20:31:23.870Z,17.37
2017-12-01T20:33:52.213Z,18.13
2017-12-01T20:36:19.843Z,18.87
2017-12-01T20:38:47.430Z,52.77
2017-12-01T20:41:15.030Z,17.53
2017-12-01T20:43:42.628Z,16.73
2017-12-01T20:46:10.220Z,18.20
2017-12-01T20:48:38.633Z,17.07
2017-12-01T20:51:06.212Z,16.97
2017-12-01T20:53:33.804Z,17.60
2017-12-01T20:56:01.369Z,16.63
2017-12-01T20:58:30.519Z,13.67
2017-12-01T21:00:58.115Z,12.97
2017-12-01T21:03:25.742Z,13.40
2017-12-01T21:05:53.326Z,15.50
2017-12-01T21:08:21.037Z,15.23
2017-12-01T21:10:48.739Z,15.33
2017-12-01T21:13:16.922Z,14.17
2017-12-01T21:15:45.365Z,11.80
2017-12-01T21:18:12.940Z,13.80
2017-12-01T21:20:40.564Z,12.87
2017-12-01T21:23:08.965Z,10.70
2017-12-01T21:25:36.620Z,12.93
2017-12-01T21:28:04.236Z,12.03
2017-12-01T21:30:31.869Z,11.37
2017-12-01T21:32:59.509Z,10.90
2017-12-01T21:35:35.034Z,11.07
2017-12-01T21:38:02.672Z,7.20
2017-12-01T21:40:30.292Z,10.30
2017-12-01T21:42:57.906Z,11.70
2017-12-01T21:45:25.507Z,9.93
2017-12-01T21:47:53.180Z,9.70
2017-12-01T21:50:20.809Z,9.50
2017-12-01T21:52:48.439Z,9.20
2017-12-01T21:55:16.034Z,10.60
2017-12-01T21:57:44.394Z,12.03
2017-12-01T22:00:12.133Z,10.87
2017-12-01T22:02:39.897Z,10.33
2017-12-01T22:05:07.521Z,9.37
2017-12-01T22:07:35.098Z,8.20
2017-12-01T22:10:02.743Z,7.50
2017-12-01T22:12:31.242Z,8.20
2017-12-01T22:14:58.829Z,7.63
2017-12-01T22:17:26.456Z,8.23
2017-12-01T22:19:54.068Z,10.50
2017-12-01T22:22:21.771Z,8.43
2017-12-01T22:24:49.409Z,8.57
2017-12-01T22:27:17.036Z,7.30
2017-12-01T22:29:44.670Z,7.80
2017-12-01T22:32:12.323Z,6.83
2017-12-01T22:34:39.970Z,8.30
2017-12-01T22:37:07.582Z,9.60
2017-12-01T22:39:35.207Z,8.87
2017-12-01T22:42:02.801Z,10.57
2017-12-01T22:44:30.374Z,9.60
2017-12-01T22:46:57.978Z,8.50
2017-12-01T22:49:25.569Z,10.37
2017-12-01T22:51:53.436Z,11.37
2017-12-01T22:54:21.146Z,9.90
2017-12-01T22:56:49.554Z,9.40
2017-12-01T22:59:17.281Z,8.70
2017-12-01T23:01:45.638Z,10.10
2017-12-01T23:04:13.237Z,9.43
2017-12-01T23:06:40.819Z,10.90
2017-12-01T23:09:08.437Z,10.40
2017-12-01T23:11:36.009Z,9.60
2017-12-01T23:14:03.642Z,9.97
2017-12-01T23:16:31.204Z,10.20
2017-12-01T23:18:58.776Z,8.90
2017-12-01T23:21:27.162Z,9.67
2017-12-01T23:23:54.728Z,9.63
2017-12-01T23:26:23.131Z,8.83
2017-12-01T23:28:50.741Z,8.47
2017-12-01T23:31:18.525Z,9.17
2017-12-01T23:33:47.141Z,7.97
2017-12-01T23:36:14.735Z,7.73
2017-12-01T23:38:42.351Z,8.67
2017-12-01T23:41:09.921Z,9.20
2017-12-01T23:43:37.541Z,8.20
2017-12-01T23:46:05.320Z,8.43
2017-12-01T23:48:33.715Z,8.33
2017-12-01T23:51:01.293Z,8.70
2017-12-01T23:53:28.983Z,8.70
2017-12-01T23:55:56.581Z,9.57
2017-12-01T23:58:24.944Z,10.90
